sensor_id;sensor_type;location;lat;lon;timestamp;temperature;humidity
5210;DHT22;2624;48.048;11.706;2024-01-30T00:04:06;0.60;99.90
5210;DHT22;2624;48.048;11.706;2024-01-30T00:09:08;0.50;99.90
5210;DHT22;2624;48.048;11.706;2024-01-30T00:14:10;0.50;99.90
5210;DHT22;2624;48.048;11.706;2024-01-30T00:19:13;0.60;99.90
5210;DHT22;2624;48.048;11.706;2024-01-30T00:24:15;0.90;99.90
5210;DHT22;2624;48.048;11.706;2024-01-30T00:29:17;1.10;99.90
5210;DHT22;2624;48.048;11.706;2024-01-30T00:34:21;1.10;99.90
5210;DHT22;2624;48.048;11.706;2024-01-30T00:39:23;1.00;99.90
5210;DHT22;2624;48.048;11.706;2024-01-30T00:44:24;1.10;99.90
5210;DHT22;2624;48.048;11.706;2024-01-30T00:49:27;1.30;99.90
5210;DHT22;2624;48.048;11.706;2024-01-30T00:54:29;0.90;99.90
5210;DHT22;2624;48.048;11.706;2024-01-30T00:59:31;0.90;99.90
5210;DHT22;2624;48.048;11.706;2024-01-30T01:04:34;0.70;99.90
5210;DHT22;2624;48.048;11.706;2024-01-30T01:09:36;0.20;99.90
5210;DHT22;2624;48.048;11.706;2024-01-30T01:14:37;0.50;99.90
5210;DHT22;2624;48.048;11.706;2024-01-30T01:19:40;0.30;99.90
5210;DHT22;2624;48.048;11.706;2024-01-30T01:24:42;0.60;99.90
5210;DHT22;2624;48.048;11.706;2024-01-30T01:29:44;0.30;99.90
5210;DHT22;2624;48.048;11.706;2024-01-30T01:34:47;-0.10;99.90
5210;DHT22;2624;48.048;11.706;2024-01-30T01:39:49;0.50;99.90
5210;DHT22;2624;48.048;11.706;2024-01-30T01:44:51;0.00;99.90
5210;DHT22;2624;48.048;11.706;2024-01-30T01:49:54;0.10;99.90
5210;DHT22;2624;48.048;11.706;2024-01-30T01:54:56;0.10;99.90
5210;DHT22;2624;48.048;11.706;2024-01-30T01:59:58;0.10;99.90
5210;DHT22;2624;48.048;11.706;2024-01-30T02:05:01;0.30;99.90
5210;DHT22;2624;48.048;11.706;2024-01-30T02:10:04;0.20;99.90
5210;DHT22;2624;48.048;11.706;2024-01-30T02:15:06;-0.10;99.90
5210;DHT22;2624;48.048;11.706;2024-01-30T02:20:10;-0.40;99.90
5210;DHT22;2624;48.048;11.706;2024-01-30T02:25:15;0.10;99.90
5210;DHT22;2624;48.048;11.706;2024-01-30T02:30:16;0.60;99.90
5210;DHT22;2624;48.048;11.706;2024-01-30T02:35:18;0.50;99.90
5210;DHT22;2624;48.048;11.706;2024-01-30T02:40:21;0.10;99.90
5210;DHT22;2624;48.048;11.706;2024-01-30T02:45:23;-0.20;99.90
5210;DHT22;2624;48.048;11.706;2024-01-30T02:50:25;0.10;99.90
5210;DHT22;2624;48.048;11.706;2024-01-30T02:55:28;0.30;99.90
5210;DHT22;2624;48.048;11.706;2024-01-30T03:00:30;0.00;99.90
5210;DHT22;2624;48.048;11.706;2024-01-30T03:05:32;-0.70;99.90
5210;DHT22;2624;48.048;11.706;2024-01-30T03:10:35;-0.60;99.90
5210;DHT22;2624;48.048;11.706;2024-01-30T03:15:36;-0.60;99.90
5210;DHT22;2624;48.048;11.706;2024-01-30T03:20:38;-0.30;99.90
5210;DHT22;2624;48.048;11.706;2024-01-30T03:25:41;-0.40;99.90
5210;DHT22;2624;48.048;11.706;2024-01-30T03:30:43;-0.90;99.90
5210;DHT22;2624;48.048;11.706;2024-01-30T03:35:45;-1.00;99.90
5210;DHT22;2624;48.048;11.706;2024-01-30T03:40:48;-0.90;99.90
5210;DHT22;2624;48.048;11.706;2024-01-30T03:45:49;-0.60;99.90
5210;DHT22;2624;48.048;11.706;2024-01-30T03:50:51;-0.70;99.90
5210;DHT22;2624;48.048;11.706;2024-01-30T03:55:54;-0.80;99.90
5210;DHT22;2624;48.048;11.706;2024-01-30T04:00:56;-0.70;99.90
5210;DHT22;2624;48.048;11.706;2024-01-30T04:05:58;-0.20;99.90
5210;DHT22;2624;48.048;11.706;2024-01-30T04:11:04;-0.50;99.90
5210;DHT22;2624;48.048;11.706;2024-01-30T04:16:07;-0.70;99.90
5210;DHT22;2624;48.048;11.706;2024-01-30T04:21:08;-0.30;99.90
5210;DHT22;2624;48.048;11.706;2024-01-30T04:26:11;-0.40;99.90
5210;DHT22;2624;48.048;11.706;2024-01-30T04:31:14;-0.40;99.90
5210;DHT22;2624;48.048;11.706;2024-01-30T04:36:16;-0.90;99.90
5210;DHT22;2624;48.048;11.706;2024-01-30T04:41:20;-0.80;99.90
5210;DHT22;2624;48.048;11.706;2024-01-30T04:46:21;-0.10;99.90
5210;DHT22;2624;48.048;11.706;2024-01-30T04:51:23;-0.30;99.90
5210;DHT22;2624;48.048;11.706;2024-01-30T04:56:26;-0.80;99.90
5210;DHT22;2624;48.048;11.706;2024-01-30T05:01:28;-1.00;99.90
5210;DHT22;2624;48.048;11.706;2024-01-30T05:06:30;-1.00;99.90
5210;DHT22;2624;48.048;11.706;2024-01-30T05:11:36;-0.90;99.90
5210;DHT22;2624;48.048;11.706;2024-01-30T05:16:38;-0.50;99.90
5210;DHT22;2624;48.048;11.706;2024-01-30T05:21:40;-1.00;99.90
5210;DHT22;2624;48.048;11.706;2024-01-30T05:26:44;-1.10;99.90
5210;DHT22;2624;48.048;11.706;2024-01-30T05:31:45;-1.10;99.90
5210;DHT22;2624;48.048;11.706;2024-01-30T05:36:47;-1.20;99.90
5210;DHT22;2624;48.048;11.706;2024-01-30T05:41:50;-1.10;99.90
5210;DHT22;2624;48.048;11.706;2024-01-30T05:46:52;-1.10;99.90
5210;DHT22;2624;48.048;11.706;2024-01-30T05:51:53;-0.80;99.90
5210;DHT22;2624;48.048;11.706;2024-01-30T05:56:57;-0.90;99.90
5210;DHT22;2624;48.048;11.706;2024-01-30T06:01:59;-0.80;99.90
5210;DHT22;2624;48.048;11.706;2024-01-30T06:07:01;-1.20;99.90
5210;DHT22;2624;48.048;11.706;2024-01-30T06:12:05;-0.80;99.90
5210;DHT22;2624;48.048;11.706;2024-01-30T06:17:07;-0.70;99.90
5210;DHT22;2624;48.048;11.706;2024-01-30T06:22:09;-0.70;99.90
5210;DHT22;2624;48.048;11.706;2024-01-30T06:27:12;-1.20;99.90
5210;DHT22;2624;48.048;11.706;2024-01-30T06:32:13;-0.90;99.90
5210;DHT22;2624;48.048;11.706;2024-01-30T06:37:15;-1.20;99.90
5210;DHT22;2624;48.048;11.706;2024-01-30T06:42:18;-1.20;99.90
5210;DHT22;2624;48.048;11.706;2024-01-30T06:47:20;-0.90;99.90
5210;DHT22;2624;48.048;11.706;2024-01-30T06:52:22;-1.20;99.90
5210;DHT22;2624;48.048;11.706;2024-01-30T06:57:25;-1.20;99.90
5210;DHT22;2624;48.048;11.706;2024-01-30T07:02:28;-1.20;99.90
5210;DHT22;2624;48.048;11.706;2024-01-30T07:07:30;-0.80;99.90
5210;DHT22;2624;48.048;11.706;2024-01-30T07:12:33;-0.80;99.90
5210;DHT22;2624;48.048;11.706;2024-01-30T07:17:35;-1.00;99.90
5210;DHT22;2624;48.048;11.706;2024-01-30T07:22:37;-1.00;99.90
5210;DHT22;2624;48.048;11.706;2024-01-30T07:27:41;-1.20;99.90
5210;DHT22;2624;48.048;11.706;2024-01-30T07:32:43;-1.30;99.90
5210;DHT22;2624;48.048;11.706;2024-01-30T07:37:44;-0.90;99.90
5210;DHT22;2624;48.048;11.706;2024-01-30T07:42:48;-0.80;99.90
5210;DHT22;2624;48.048;11.706;2024-01-30T07:47:50;-1.00;99.90
5210;DHT22;2624;48.048;11.706;2024-01-30T07:52:51;-1.10;99.90
5210;DHT22;2624;48.048;11.706;2024-01-30T07:57:56;-1.00;99.90
5210;DHT22;2624;48.048;11.706;2024-01-30T08:02:59;-0.90;99.90
5210;DHT22;2624;48.048;11.706;2024-01-30T08:08:01;-0.90;99.90
5210;DHT22;2624;48.048;11.706;2024-01-30T08:13:04;-0.80;99.90
5210;DHT22;2624;48.048;11.706;2024-01-30T08:18:06;-0.80;99.90
5210;DHT22;2624;48.048;11.706;2024-01-30T08:23:08;-0.60;99.90
5210;DHT22;2624;48.048;11.706;2024-01-30T08:28:12;-0.50;99.90
5210;DHT22;2624;48.048;11.706;2024-01-30T08:33:14;-0.40;99.90
5210;DHT22;2624;48.048;11.706;2024-01-30T08:38:15;-0.20;99.90
5210;DHT22;2624;48.048;11.706;2024-01-30T08:43:18;0.00;99.90
5210;DHT22;2624;48.048;11.706;2024-01-30T08:48:20;-0.10;99.90
5210;DHT22;2624;48.048;11.706;2024-01-30T08:53:23;0.10;99.90
5210;DHT22;2624;48.048;11.706;2024-01-30T08:58:26;0.30;99.90
5210;DHT22;2624;48.048;11.706;2024-01-30T09:03:28;0.30;99.90
5210;DHT22;2624;48.048;11.706;2024-01-30T09:08:29;0.20;99.90
5210;DHT22;2624;48.048;11.706;2024-01-30T09:13:32;0.40;99.90
5210;DHT22;2624;48.048;11.706;2024-01-30T09:18:34;0.50;99.90
5210;DHT22;2624;48.048;11.706;2024-01-30T09:23:36;0.60;99.90
5210;DHT22;2624;48.048;11.706;2024-01-30T09:28:39;1.40;99.90
5210;DHT22;2624;48.048;11.706;2024-01-30T09:33:43;1.60;99.90
5210;DHT22;2624;48.048;11.706;2024-01-30T09:38:47;1.80;99.90
5210;DHT22;2624;48.048;11.706;2024-01-30T09:43:51;2.30;99.90
5210;DHT22;2624;48.048;11.706;2024-01-30T09:48:53;2.40;99.90
5210;DHT22;2624;48.048;11.706;2024-01-30T09:53:56;2.90;99.90
5210;DHT22;2624;48.048;11.706;2024-01-30T09:58:59;2.50;99.90
5210;DHT22;2624;48.048;11.706;2024-01-30T10:04:01;2.40;99.90
5210;DHT22;2624;48.048;11.706;2024-01-30T10:09:03;2.30;99.90
5210;DHT22;2624;48.048;11.706;2024-01-30T10:14:07;2.50;99.90
5210;DHT22;2624;48.048;11.706;2024-01-30T10:19:08;3.50;99.90
5210;DHT22;2624;48.048;11.706;2024-01-30T10:24:10;4.20;99.90
5210;DHT22;2624;48.048;11.706;2024-01-30T10:29:14;4.10;99.90
5210;DHT22;2624;48.048;11.706;2024-01-30T10:34:16;4.30;99.90
5210;DHT22;2624;48.048;11.706;2024-01-30T10:39:20;4.90;99.90
5210;DHT22;2624;48.048;11.706;2024-01-30T10:44:24;5.30;99.90
5210;DHT22;2624;48.048;11.706;2024-01-30T10:49:26;5.10;99.90
5210;DHT22;2624;48.048;11.706;2024-01-30T10:54:29;5.00;99.90
5210;DHT22;2624;48.048;11.706;2024-01-30T10:59:33;5.10;99.90
5210;DHT22;2624;48.048;11.706;2024-01-30T11:04:38;5.50;99.90
5210;DHT22;2624;48.048;11.706;2024-01-30T11:09:48;5.30;99.90
5210;DHT22;2624;48.048;11.706;2024-01-30T11:15:01;5.80;99.90
5210;DHT22;2624;48.048;11.706;2024-01-30T11:20:05;6.20;99.90
5210;DHT22;2624;48.048;11.706;2024-01-30T11:25:14;6.30;99.90
5210;DHT22;2624;48.048;11.706;2024-01-30T11:30:26;6.30;99.90
5210;DHT22;2624;48.048;11.706;2024-01-30T11:35:30;6.30;99.90
5210;DHT22;2624;48.048;11.706;2024-01-30T11:40:33;6.40;99.90
5210;DHT22;2624;48.048;11.706;2024-01-30T11:45:36;6.60;99.90
5210;DHT22;2624;48.048;11.706;2024-01-30T11:50:40;5.90;99.90
5210;DHT22;2624;48.048;11.706;2024-01-30T11:55:42;5.60;99.90
5210;DHT22;2624;48.048;11.706;2024-01-30T12:00:54;5.40;99.90
5210;DHT22;2624;48.048;11.706;2024-01-30T12:05:56;6.10;99.90
5210;DHT22;2624;48.048;11.706;2024-01-30T12:10:59;5.90;99.90
5210;DHT22;2624;48.048;11.706;2024-01-30T12:16:04;7.50;99.90
5210;DHT22;2624;48.048;11.706;2024-01-30T12:21:06;6.50;99.90
5210;DHT22;2624;48.048;11.706;2024-01-30T12:26:10;7.20;99.90
5210;DHT22;2624;48.048;11.706;2024-01-30T12:31:13;7.00;99.90
5210;DHT22;2624;48.048;11.706;2024-01-30T12:36:16;6.30;99.90
5210;DHT22;2624;48.048;11.706;2024-01-30T12:41:20;6.00;99.90
5210;DHT22;2624;48.048;11.706;2024-01-30T12:46:26;6.10;99.90
5210;DHT22;2624;48.048;11.706;2024-01-30T12:51:29;6.00;99.90
5210;DHT22;2624;48.048;11.706;2024-01-30T12:56:30;7.90;97.30
5210;DHT22;2624;48.048;11.706;2024-01-30T13:01:34;8.30;97.20
5210;DHT22;2624;48.048;11.706;2024-01-30T13:06:35;8.10;97.00
5210;DHT22;2624;48.048;11.706;2024-01-30T13:11:37;8.10;97.40
5210;DHT22;2624;48.048;11.706;2024-01-30T13:16:40;8.20;98.00
5210;DHT22;2624;48.048;11.706;2024-01-30T13:21:42;8.50;96.80
5210;DHT22;2624;48.048;11.706;2024-01-30T13:26:44;8.40;96.10
5210;DHT22;2624;48.048;11.706;2024-01-30T13:31:47;8.50;94.80
5210;DHT22;2624;48.048;11.706;2024-01-30T13:36:50;8.80;93.00
5210;DHT22;2624;48.048;11.706;2024-01-30T13:41:52;8.50;94.00
5210;DHT22;2624;48.048;11.706;2024-01-30T13:46:55;8.80;95.70
5210;DHT22;2624;48.048;11.706;2024-01-30T13:51:57;9.30;94.80
5210;DHT22;2624;48.048;11.706;2024-01-30T13:56:59;9.20;95.00
5210;DHT22;2624;48.048;11.706;2024-01-30T14:02:03;9.20;94.60
5210;DHT22;2624;48.048;11.706;2024-01-30T14:07:05;9.40;92.90
5210;DHT22;2624;48.048;11.706;2024-01-30T14:12:07;9.20;94.40
5210;DHT22;2624;48.048;11.706;2024-01-30T14:17:11;9.30;93.60
5210;DHT22;2624;48.048;11.706;2024-01-30T14:22:12;9.30;93.90
5210;DHT22;2624;48.048;11.706;2024-01-30T14:27:14;9.20;94.40
5210;DHT22;2624;48.048;11.706;2024-01-30T14:32:17;9.20;94.70
5210;DHT22;2624;48.048;11.706;2024-01-30T14:37:19;9.20;94.50
5210;DHT22;2624;48.048;11.706;2024-01-30T14:42:22;8.80;97.50
5210;DHT22;2624;48.048;11.706;2024-01-30T14:47:25;8.70;96.20
5210;DHT22;2624;48.048;11.706;2024-01-30T14:52:27;7.70;99.70
5210;DHT22;2624;48.048;11.706;2024-01-30T14:57:29;7.90;99.20
5210;DHT22;2624;48.048;11.706;2024-01-30T15:02:32;7.80;99.90
5210;DHT22;2624;48.048;11.706;2024-01-30T15:07:33;7.30;99.90
5210;DHT22;2624;48.048;11.706;2024-01-30T15:12:36;7.10;99.90
5210;DHT22;2624;48.048;11.706;2024-01-30T15:17:39;7.10;99.90
5210;DHT22;2624;48.048;11.706;2024-01-30T15:22:41;7.30;99.90
5210;DHT22;2624;48.048;11.706;2024-01-30T15:27:43;7.40;99.90
5210;DHT22;2624;48.048;11.706;2024-01-30T15:32:46;7.40;99.90
5210;DHT22;2624;48.048;11.706;2024-01-30T15:37:48;7.20;99.90
5210;DHT22;2624;48.048;11.706;2024-01-30T15:42:49;7.30;99.90
5210;DHT22;2624;48.048;11.706;2024-01-30T15:47:52;7.60;99.90
5210;DHT22;2624;48.048;11.706;2024-01-30T15:52:54;7.70;99.90
5210;DHT22;2624;48.048;11.706;2024-01-30T15:57:56;7.60;99.90
5210;DHT22;2624;48.048;11.706;2024-01-30T16:02:59;7.40;99.90
5210;DHT22;2624;48.048;11.706;2024-01-30T16:08:01;7.20;99.90
5210;DHT22;2624;48.048;11.706;2024-01-30T16:13:03;7.00;99.90
5210;DHT22;2624;48.048;11.706;2024-01-30T16:18:06;6.90;99.90
5210;DHT22;2624;48.048;11.706;2024-01-30T16:23:08;6.90;99.90
5210;DHT22;2624;48.048;11.706;2024-01-30T16:28:10;6.70;99.90
5210;DHT22;2624;48.048;11.706;2024-01-30T16:33:13;6.60;99.90
5210;DHT22;2624;48.048;11.706;2024-01-30T16:38:15;6.50;99.90
5210;DHT22;2624;48.048;11.706;2024-01-30T16:43:17;6.40;99.90
5210;DHT22;2624;48.048;11.706;2024-01-30T16:48:20;6.20;99.90
5210;DHT22;2624;48.048;11.706;2024-01-30T16:53:23;6.10;99.90
5210;DHT22;2624;48.048;11.706;2024-01-30T16:58:24;6.00;99.90
5210;DHT22;2624;48.048;11.706;2024-01-30T17:03:27;5.70;99.90
5210;DHT22;2624;48.048;11.706;2024-01-30T17:08:29;5.70;99.90
5210;DHT22;2624;48.048;11.706;2024-01-30T17:13:31;5.70;99.90
5210;DHT22;2624;48.048;11.706;2024-01-30T17:18:34;5.40;99.90
5210;DHT22;2624;48.048;11.706;2024-01-30T17:23:36;5.40;99.90
5210;DHT22;2624;48.048;11.706;2024-01-30T17:28:39;5.30;99.90
5210;DHT22;2624;48.048;11.706;2024-01-30T17:33:43;5.20;99.90
5210;DHT22;2624;48.048;11.706;2024-01-30T17:38:45;5.30;99.90
5210;DHT22;2624;48.048;11.706;2024-01-30T17:43:47;5.30;99.90
5210;DHT22;2624;48.048;11.706;2024-01-30T17:48:50;5.10;99.90
5210;DHT22;2624;48.048;11.706;2024-01-30T17:53:52;5.10;99.90
5210;DHT22;2624;48.048;11.706;2024-01-30T17:58:54;5.00;99.90
5210;DHT22;2624;48.048;11.706;2024-01-30T18:03:57;5.20;99.90
5210;DHT22;2624;48.048;11.706;2024-01-30T18:08:59;5.10;99.90
5210;DHT22;2624;48.048;11.706;2024-01-30T18:14:00;5.00;99.90
5210;DHT22;2624;48.048;11.706;2024-01-30T18:19:03;4.70;99.90
5210;DHT22;2624;48.048;11.706;2024-01-30T18:24:05;4.80;99.90
5210;DHT22;2624;48.048;11.706;2024-01-30T18:29:07;5.10;99.90
5210;DHT22;2624;48.048;11.706;2024-01-30T18:34:10;4.70;99.90
5210;DHT22;2624;48.048;11.706;2024-01-30T18:39:14;4.80;99.90
5210;DHT22;2624;48.048;11.706;2024-01-30T18:44:16;4.80;99.90
5210;DHT22;2624;48.048;11.706;2024-01-30T18:49:19;4.50;99.90
5210;DHT22;2624;48.048;11.706;2024-01-30T18:54:21;4.20;99.90
5210;DHT22;2624;48.048;11.706;2024-01-30T18:59:23;4.20;99.90
5210;DHT22;2624;48.048;11.706;2024-01-30T19:04:26;4.50;99.90
5210;DHT22;2624;48.048;11.706;2024-01-30T19:09:27;4.10;99.90
5210;DHT22;2624;48.048;11.706;2024-01-30T19:14:29;3.90;99.90
5210;DHT22;2624;48.048;11.706;2024-01-30T19:19:33;3.90;99.90
5210;DHT22;2624;48.048;11.706;2024-01-30T19:24:35;4.00;99.90
5210;DHT22;2624;48.048;11.706;2024-01-30T19:29:36;4.00;99.90
5210;DHT22;2624;48.048;11.706;2024-01-30T19:34:41;3.90;99.90
5210;DHT22;2624;48.048;11.706;2024-01-30T19:39:42;3.90;99.90
5210;DHT22;2624;48.048;11.706;2024-01-30T19:44:45;3.80;99.90
5210;DHT22;2624;48.048;11.706;2024-01-30T19:49:48;3.80;99.90
5210;DHT22;2624;48.048;11.706;2024-01-30T19:54:50;3.70;99.90
5210;DHT22;2624;48.048;11.706;2024-01-30T19:59:51;3.90;99.90
5210;DHT22;2624;48.048;11.706;2024-01-30T20:04:55;3.90;99.90
5210;DHT22;2624;48.048;11.706;2024-01-30T20:09:56;3.70;99.90
5210;DHT22;2624;48.048;11.706;2024-01-30T20:14:58;3.60;99.90
5210;DHT22;2624;48.048;11.706;2024-01-30T20:20:01;3.80;99.90
5210;DHT22;2624;48.048;11.706;2024-01-30T20:25:04;4.10;99.90
5210;DHT22;2624;48.048;11.706;2024-01-30T20:30:07;3.90;99.90
5210;DHT22;2624;48.048;11.706;2024-01-30T20:35:12;3.90;99.90
5210;DHT22;2624;48.048;11.706;2024-01-30T20:40:14;3.90;99.90
5210;DHT22;2624;48.048;11.706;2024-01-30T20:45:17;3.50;99.90
5210;DHT22;2624;48.048;11.706;2024-01-30T20:50:20;3.40;99.90
5210;DHT22;2624;48.048;11.706;2024-01-30T20:55:22;3.30;99.90
5210;DHT22;2624;48.048;11.706;2024-01-30T21:00:23;3.20;99.90
5210;DHT22;2624;48.048;11.706;2024-01-30T21:05:27;3.00;99.90
5210;DHT22;2624;48.048;11.706;2024-01-30T21:10:29;3.30;99.90
5210;DHT22;2624;48.048;11.706;2024-01-30T21:15:30;3.20;99.90
5210;DHT22;2624;48.048;11.706;2024-01-30T21:20:34;3.60;99.90
5210;DHT22;2624;48.048;11.706;2024-01-30T21:25:35;3.20;99.90
5210;DHT22;2624;48.048;11.706;2024-01-30T21:30:37;2.90;99.90
5210;DHT22;2624;48.048;11.706;2024-01-30T21:35:40;2.70;99.90
5210;DHT22;2624;48.048;11.706;2024-01-30T21:40:42;2.60;99.90
5210;DHT22;2624;48.048;11.706;2024-01-30T21:45:44;2.70;99.90
5210;DHT22;2624;48.048;11.706;2024-01-30T21:50:47;2.90;99.90
5210;DHT22;2624;48.048;11.706;2024-01-30T21:55:49;2.60;99.90
5210;DHT22;2624;48.048;11.706;2024-01-30T22:00:51;2.70;99.90
5210;DHT22;2624;48.048;11.706;2024-01-30T22:05:54;2.50;99.90
5210;DHT22;2624;48.048;11.706;2024-01-30T22:10:55;2.80;99.90
5210;DHT22;2624;48.048;11.706;2024-01-30T22:15:57;2.50;99.90
5210;DHT22;2624;48.048;11.706;2024-01-30T22:21:01;2.50;99.90
5210;DHT22;2624;48.048;11.706;2024-01-30T22:26:07;2.60;99.90
5210;DHT22;2624;48.048;11.706;2024-01-30T22:31:09;2.80;99.90
5210;DHT22;2624;48.048;11.706;2024-01-30T22:36:13;2.80;99.90
5210;DHT22;2624;48.048;11.706;2024-01-30T22:41:21;2.80;99.90
5210;DHT22;2624;48.048;11.706;2024-01-30T22:46:22;2.80;99.90
5210;DHT22;2624;48.048;11.706;2024-01-30T22:51:25;2.60;99.90
5210;DHT22;2624;48.048;11.706;2024-01-30T22:56:28;2.70;99.90
5210;DHT22;2624;48.048;11.706;2024-01-30T23:01:30;2.60;99.90
5210;DHT22;2624;48.048;11.706;2024-01-30T23:06:33;2.30;99.90
5210;DHT22;2624;48.048;11.706;2024-01-30T23:11:35;2.50;99.90
5210;DHT22;2624;48.048;11.706;2024-01-30T23:16:36;2.60;99.90
5210;DHT22;2624;48.048;11.706;2024-01-30T23:21:39;2.40;99.90
5210;DHT22;2624;48.048;11.706;2024-01-30T23:26:41;2.60;99.90
5210;DHT22;2624;48.048;11.706;2024-01-30T23:31:43;2.60;99.90
5210;DHT22;2624;48.048;11.706;2024-01-30T23:36:46;2.60;99.90
5210;DHT22;2624;48.048;11.706;2024-01-30T23:41:48;2.80;99.90
5210;DHT22;2624;48.048;11.706;2024-01-30T23:46:50;2.90;99.90
5210;DHT22;2624;48.048;11.706;2024-01-30T23:51:53;2.60;99.90
5210;DHT22;2624;48.048;11.706;2024-01-30T23:56:55;2.60;99.90
